Estación Meteorológica Peña el Pijo (Robertgarden) [ 12/11/19 23:05:43 CET ]

Fecha Hora Presion(HPa) Temp (°C) Humedad % Rocio (°C) Viento ( m/s) Direccion Lluvia 1Hora(mm) Lluvia 24H(mm) LLuvia Total(mm)
2019-Sep-10 01:01:56 1008.100 18.9 60 11.0         391.83
2019-Sep-10 02:01:44 1008.100 19.0 58 10.6         391.83
2019-Sep-10 03:01:40 1007.400 18.6 58 10.2         391.83
2019-Sep-10 04:06:13 1006.400 18.5 56 9.5         391.83
2019-Sep-10 05:01:53 1005.900 17.4 59 9.3         391.83
2019-Sep-10 06:01:46 1005.000 17.0 61 9.4         391.83
2019-Sep-10 07:01:50 1004.400 16.2 57 7.7         391.83
2019-Sep-10 08:02:04 1004.600 15.4 57 6.9         391.83
2019-Sep-10 09:01:39 1004.600 16.6 54 7.2         391.83
2019-Sep-10 10:01:43 1005.200 17.1 51 6.9         391.83
2019-Sep-10 11:01:41 1005.900 16.4 53 6.8         391.83
2019-Sep-10 12:01:50 1005.900 16.3 55 7.2         391.83
2019-Sep-10 13:01:52 1005.500 18.5 50 7.9         391.83
2019-Sep-10 14:02:02 1005.500 18.4 44 5.8         391.83
2019-Sep-10 15:01:48 1005.100 22.0 34 5.3         391.83
2019-Sep-10 16:02:01 1005.000 21.6 29 2.8         391.83
2019-Sep-10 17:01:34 1005.100 21.3 27 1.4         391.83
2019-Sep-10 18:01:57 1005.400 20.6 25 -0.3 0.7 W     391.83
2019-Sep-10 19:01:54 1006.200 18.5 30 0.7         391.83
2019-Sep-10 20:01:51 1006.400 16.5 35 0.9         391.83
2019-Sep-10 21:01:55 1006.800 16.1 37 1.3         391.83
2019-Sep-10 22:01:44 1008.400 14.3 47 3.1         391.83
2019-Sep-10 23:01:50 1008.600 10.5 65 4.2         391.83

Temperatura Máxima:22°    Temperatura Mínima:10°
Presión Máxima:1008.600 Hpa    Presión Mínima:1004.400 Hpa


Volver